sensor_id;sensor_type;location;lat;lon;timestamp;P1;durP1;ratioP1;P2;durP2;ratioP2
56820;SDS011;42702;50.178;20.992;2022-09-03T00:02:12;3.10;;;2.20;;
56820;SDS011;42702;50.178;20.992;2022-09-03T00:05:04;3.30;;;2.10;;
56820;SDS011;42702;50.178;20.992;2022-09-03T00:13:51;4.90;;;2.00;;
56820;SDS011;42702;50.178;20.992;2022-09-03T00:16:23;5.80;;;2.50;;
56820;SDS011;42702;50.178;20.992;2022-09-03T00:19:00;4.00;;;2.10;;
56820;SDS011;42702;50.178;20.992;2022-09-03T00:21:34;5.10;;;2.30;;
56820;SDS011;42702;50.178;20.992;2022-09-03T00:24:07;3.50;;;2.20;;
56820;SDS011;42702;50.178;20.992;2022-09-03T00:26:43;4.70;;;2.10;;
56820;SDS011;42702;50.178;20.992;2022-09-03T00:29:15;6.60;;;2.10;;
56820;SDS011;42702;50.178;20.992;2022-09-03T00:31:48;4.80;;;2.30;;
56820;SDS011;42702;50.178;20.992;2022-09-03T00:34:25;3.20;;;2.20;;
56820;SDS011;42702;50.178;20.992;2022-09-03T00:36:56;6.10;;;2.60;;
56820;SDS011;42702;50.178;20.992;2022-09-03T00:39:25;5.30;;;2.30;;
56820;SDS011;42702;50.178;20.992;2022-09-03T00:47:10;5.00;;;2.50;;
56820;SDS011;42702;50.178;20.992;2022-09-03T00:52:40;3.30;;;2.20;;
56820;SDS011;42702;50.178;20.992;2022-09-03T01:00:45;4.60;;;2.60;;
56820;SDS011;42702;50.178;20.992;2022-09-03T01:03:19;3.00;;;2.20;;
56820;SDS011;42702;50.178;20.992;2022-09-03T01:06:12;4.00;;;2.40;;
56820;SDS011;42702;50.178;20.992;2022-09-03T01:15:08;3.20;;;2.30;;
56820;SDS011;42702;50.178;20.992;2022-09-03T01:35:15;6.10;;;2.60;;
56820;SDS011;42702;50.178;20.992;2022-09-03T01:47:26;5.10;;;2.50;;
56820;SDS011;42702;50.178;20.992;2022-09-03T01:55:33;4.40;;;2.30;;
56820;SDS011;42702;50.178;20.992;2022-09-03T01:58:13;4.80;;;2.40;;
56820;SDS011;42702;50.178;20.992;2022-09-03T02:00:54;4.80;;;2.60;;
56820;SDS011;42702;50.178;20.992;2022-09-03T02:03:32;5.40;;;2.60;;
56820;SDS011;42702;50.178;20.992;2022-09-03T02:06:08;6.00;;;3.00;;
56820;SDS011;42702;50.178;20.992;2022-09-03T02:08:38;4.00;;;2.40;;
56820;SDS011;42702;50.178;20.992;2022-09-03T02:11:08;5.20;;;2.70;;
56820;SDS011;42702;50.178;20.992;2022-09-03T02:13:37;4.60;;;2.80;;
56820;SDS011;42702;50.178;20.992;2022-09-03T02:16:14;3.60;;;2.40;;
56820;SDS011;42702;50.178;20.992;2022-09-03T02:18:49;4.60;;;2.70;;
56820;SDS011;42702;50.178;20.992;2022-09-03T02:21:22;5.70;;;2.80;;
56820;SDS011;42702;50.178;20.992;2022-09-03T02:23:51;4.20;;;2.70;;
56820;SDS011;42702;50.178;20.992;2022-09-03T02:26:21;5.90;;;2.80;;
56820;SDS011;42702;50.178;20.992;2022-09-03T02:28:52;9.90;;;2.50;;
56820;SDS011;42702;50.178;20.992;2022-09-03T02:31:21;3.60;;;2.60;;
56820;SDS011;42702;50.178;20.992;2022-09-03T02:33:49;3.80;;;2.60;;
56820;SDS011;42702;50.178;20.992;2022-09-03T02:36:20;5.70;;;2.70;;
56820;SDS011;42702;50.178;20.992;2022-09-03T02:38:54;4.60;;;2.50;;
56820;SDS011;42702;50.178;20.992;2022-09-03T02:41:22;6.30;;;2.90;;
56820;SDS011;42702;50.178;20.992;2022-09-03T02:43:57;4.20;;;2.90;;
56820;SDS011;42702;50.178;20.992;2022-09-03T02:47:13;8.40;;;2.80;;
56820;SDS011;42702;50.178;20.992;2022-09-03T02:49:25;6.60;;;3.00;;
56820;SDS011;42702;50.178;20.992;2022-09-03T02:51:59;4.20;;;2.60;;
56820;SDS011;42702;50.178;20.992;2022-09-03T02:54:32;5.50;;;2.80;;
56820;SDS011;42702;50.178;20.992;2022-09-03T02:57:03;5.10;;;2.70;;
56820;SDS011;42702;50.178;20.992;2022-09-03T02:59:31;4.00;;;2.30;;
56820;SDS011;42702;50.178;20.992;2022-09-03T03:01:59;4.30;;;2.90;;
56820;SDS011;42702;50.178;20.992;2022-09-03T03:04:29;5.10;;;2.80;;
56820;SDS011;42702;50.178;20.992;2022-09-03T03:06:57;6.00;;;3.00;;
56820;SDS011;42702;50.178;20.992;2022-09-03T03:09:26;5.40;;;2.80;;
56820;SDS011;42702;50.178;20.992;2022-09-03T03:11:54;8.70;;;2.90;;
56820;SDS011;42702;50.178;20.992;2022-09-03T03:14:23;5.40;;;2.70;;
56820;SDS011;42702;50.178;20.992;2022-09-03T03:16:51;6.10;;;3.10;;
56820;SDS011;42702;50.178;20.992;2022-09-03T03:19:19;5.30;;;3.20;;
56820;SDS011;42702;50.178;20.992;2022-09-03T03:21:47;4.00;;;2.80;;
56820;SDS011;42702;50.178;20.992;2022-09-03T03:24:15;5.60;;;2.70;;
56820;SDS011;42702;50.178;20.992;2022-09-03T03:26:43;4.70;;;2.90;;
56820;SDS011;42702;50.178;20.992;2022-09-03T03:29:16;4.90;;;3.00;;
56820;SDS011;42702;50.178;20.992;2022-09-03T03:31:47;6.70;;;3.20;;
56820;SDS011;42702;50.178;20.992;2022-09-03T03:34:15;7.40;;;3.10;;
56820;SDS011;42702;50.178;20.992;2022-09-03T03:36:43;5.20;;;2.90;;
56820;SDS011;42702;50.178;20.992;2022-09-03T03:39:12;4.50;;;3.00;;
56820;SDS011;42702;50.178;20.992;2022-09-03T03:41:40;7.10;;;3.00;;
56820;SDS011;42702;50.178;20.992;2022-09-03T03:44:08;5.50;;;3.00;;
56820;SDS011;42702;50.178;20.992;2022-09-03T03:46:37;5.50;;;2.80;;
56820;SDS011;42702;50.178;20.992;2022-09-03T03:49:07;6.70;;;3.10;;
56820;SDS011;42702;50.178;20.992;2022-09-03T03:51:37;10.00;;;3.30;;
56820;SDS011;42702;50.178;20.992;2022-09-03T03:54:07;5.70;;;3.30;;
56820;SDS011;42702;50.178;20.992;2022-09-03T03:56:35;6.60;;;3.40;;
56820;SDS011;42702;50.178;20.992;2022-09-03T03:59:03;5.20;;;2.90;;
56820;SDS011;42702;50.178;20.992;2022-09-03T04:01:32;5.30;;;3.30;;
56820;SDS011;42702;50.178;20.992;2022-09-03T04:04:00;5.30;;;3.10;;
56820;SDS011;42702;50.178;20.992;2022-09-03T04:06:29;5.30;;;2.80;;
56820;SDS011;42702;50.178;20.992;2022-09-03T04:08:57;5.30;;;3.10;;
56820;SDS011;42702;50.178;20.992;2022-09-03T04:11:25;7.40;;;2.90;;
56820;SDS011;42702;50.178;20.992;2022-09-03T04:13:53;5.30;;;2.80;;
56820;SDS011;42702;50.178;20.992;2022-09-03T04:16:22;7.40;;;3.20;;
56820;SDS011;42702;50.178;20.992;2022-09-03T04:18:53;6.30;;;3.60;;
56820;SDS011;42702;50.178;20.992;2022-09-03T04:21:23;9.40;;;4.00;;
56820;SDS011;42702;50.178;20.992;2022-09-03T04:23:55;7.60;;;4.00;;
56820;SDS011;42702;50.178;20.992;2022-09-03T04:26:28;7.40;;;3.90;;
56820;SDS011;42702;50.178;20.992;2022-09-03T04:28:59;6.70;;;3.70;;
56820;SDS011;42702;50.178;20.992;2022-09-03T04:31:30;8.10;;;3.70;;
56820;SDS011;42702;50.178;20.992;2022-09-03T04:33:58;8.70;;;3.60;;
56820;SDS011;42702;50.178;20.992;2022-09-03T04:36:28;6.40;;;3.10;;
56820;SDS011;42702;50.178;20.992;2022-09-03T04:38:58;7.20;;;3.30;;
56820;SDS011;42702;50.178;20.992;2022-09-03T04:41:29;4.90;;;2.90;;
56820;SDS011;42702;50.178;20.992;2022-09-03T04:43:58;6.00;;;3.20;;
56820;SDS011;42702;50.178;20.992;2022-09-03T04:46:27;6.70;;;3.20;;
56820;SDS011;42702;50.178;20.992;2022-09-03T04:49:02;4.60;;;3.30;;
56820;SDS011;42702;50.178;20.992;2022-09-03T04:51:30;8.50;;;3.30;;
56820;SDS011;42702;50.178;20.992;2022-09-03T04:54:00;6.30;;;2.90;;
56820;SDS011;42702;50.178;20.992;2022-09-03T04:56:30;7.50;;;3.50;;
56820;SDS011;42702;50.178;20.992;2022-09-03T04:59:01;9.00;;;3.40;;
56820;SDS011;42702;50.178;20.992;2022-09-03T05:01:35;7.00;;;3.70;;
56820;SDS011;42702;50.178;20.992;2022-09-03T05:04:05;5.40;;;3.40;;
56820;SDS011;42702;50.178;20.992;2022-09-03T05:06:35;6.30;;;3.20;;
56820;SDS011;42702;50.178;20.992;2022-09-03T05:09:04;7.00;;;3.50;;
56820;SDS011;42702;50.178;20.992;2022-09-03T05:11:33;6.00;;;3.70;;
56820;SDS011;42702;50.178;20.992;2022-09-03T05:14:02;6.10;;;3.50;;
56820;SDS011;42702;50.178;20.992;2022-09-03T05:16:32;7.10;;;4.10;;
56820;SDS011;42702;50.178;20.992;2022-09-03T05:19:00;6.10;;;3.60;;
56820;SDS011;42702;50.178;20.992;2022-09-03T05:21:30;7.40;;;3.80;;
56820;SDS011;42702;50.178;20.992;2022-09-03T05:23:59;7.80;;;4.10;;
56820;SDS011;42702;50.178;20.992;2022-09-03T05:26:29;5.90;;;3.60;;
56820;SDS011;42702;50.178;20.992;2022-09-03T05:28:59;9.40;;;4.30;;
56820;SDS011;42702;50.178;20.992;2022-09-03T05:31:29;4.30;;;3.40;;
56820;SDS011;42702;50.178;20.992;2022-09-03T05:34:00;8.60;;;4.40;;
56820;SDS011;42702;50.178;20.992;2022-09-03T05:36:31;7.50;;;4.00;;
56820;SDS011;42702;50.178;20.992;2022-09-03T05:39:03;6.90;;;3.60;;
56820;SDS011;42702;50.178;20.992;2022-09-03T05:41:32;10.40;;;4.30;;
56820;SDS011;42702;50.178;20.992;2022-09-03T05:44:01;5.90;;;3.80;;
56820;SDS011;42702;50.178;20.992;2022-09-03T05:46:31;8.30;;;4.00;;
56820;SDS011;42702;50.178;20.992;2022-09-03T05:49:04;8.50;;;3.90;;
56820;SDS011;42702;50.178;20.992;2022-09-03T05:51:34;6.00;;;4.20;;
56820;SDS011;42702;50.178;20.992;2022-09-03T05:54:03;10.40;;;3.80;;
56820;SDS011;42702;50.178;20.992;2022-09-03T05:56:33;7.20;;;4.10;;
56820;SDS011;42702;50.178;20.992;2022-09-03T05:59:03;8.50;;;4.50;;
56820;SDS011;42702;50.178;20.992;2022-09-03T06:01:37;8.00;;;4.10;;
56820;SDS011;42702;50.178;20.992;2022-09-03T06:04:12;6.80;;;4.90;;
56820;SDS011;42702;50.178;20.992;2022-09-03T06:06:42;10.50;;;4.70;;
56820;SDS011;42702;50.178;20.992;2022-09-03T06:09:13;7.00;;;4.30;;
56820;SDS011;42702;50.178;20.992;2022-09-03T06:11:45;10.30;;;4.20;;
56820;SDS011;42702;50.178;20.992;2022-09-03T06:16:45;6.60;;;4.00;;
56820;SDS011;42702;50.178;20.992;2022-09-03T06:19:19;9.70;;;4.80;;
56820;SDS011;42702;50.178;20.992;2022-09-03T06:21:48;9.30;;;3.80;;
56820;SDS011;42702;50.178;20.992;2022-09-03T06:24:19;8.50;;;3.80;;
56820;SDS011;42702;50.178;20.992;2022-09-03T06:26:55;9.20;;;4.10;;
56820;SDS011;42702;50.178;20.992;2022-09-03T06:29:24;11.00;;;5.00;;
56820;SDS011;42702;50.178;20.992;2022-09-03T06:31:52;6.50;;;4.40;;
56820;SDS011;42702;50.178;20.992;2022-09-03T06:34:23;6.80;;;4.20;;
56820;SDS011;42702;50.178;20.992;2022-09-03T06:36:53;7.20;;;4.50;;
56820;SDS011;42702;50.178;20.992;2022-09-03T06:39:23;9.90;;;4.60;;
56820;SDS011;42702;50.178;20.992;2022-09-03T06:41:53;6.00;;;4.50;;
56820;SDS011;42702;50.178;20.992;2022-09-03T06:44:26;8.20;;;4.70;;
56820;SDS011;42702;50.178;20.992;2022-09-03T06:46:54;8.70;;;4.20;;
56820;SDS011;42702;50.178;20.992;2022-09-03T06:49:23;7.30;;;4.60;;
56820;SDS011;42702;50.178;20.992;2022-09-03T06:51:53;6.10;;;4.30;;
56820;SDS011;42702;50.178;20.992;2022-09-03T06:54:21;8.80;;;4.90;;
56820;SDS011;42702;50.178;20.992;2022-09-03T06:56:51;8.20;;;4.20;;
56820;SDS011;42702;50.178;20.992;2022-09-03T06:59:20;9.30;;;4.50;;
56820;SDS011;42702;50.178;20.992;2022-09-03T07:01:48;7.60;;;4.20;;
56820;SDS011;42702;50.178;20.992;2022-09-03T07:04:16;11.00;;;4.90;;
56820;SDS011;42702;50.178;20.992;2022-09-03T07:06:46;7.20;;;5.80;;
56820;SDS011;42702;50.178;20.992;2022-09-03T07:09:15;8.80;;;5.00;;
56820;SDS011;42702;50.178;20.992;2022-09-03T07:11:45;7.30;;;4.80;;
56820;SDS011;42702;50.178;20.992;2022-09-03T07:14:18;10.10;;;5.10;;
56820;SDS011;42702;50.178;20.992;2022-09-03T07:16:48;8.50;;;4.80;;
56820;SDS011;42702;50.178;20.992;2022-09-03T07:19:17;6.50;;;4.60;;
56820;SDS011;42702;50.178;20.992;2022-09-03T07:21:45;6.80;;;4.30;;
56820;SDS011;42702;50.178;20.992;2022-09-03T07:24:17;7.80;;;4.70;;
56820;SDS011;42702;50.178;20.992;2022-09-03T07:26:49;7.40;;;4.10;;
56820;SDS011;42702;50.178;20.992;2022-09-03T07:29:17;6.30;;;4.00;;
56820;SDS011;42702;50.178;20.992;2022-09-03T07:31:48;7.00;;;4.70;;
56820;SDS011;42702;50.178;20.992;2022-09-03T07:34:20;7.30;;;4.00;;
56820;SDS011;42702;50.178;20.992;2022-09-03T07:36:53;8.80;;;4.80;;
56820;SDS011;42702;50.178;20.992;2022-09-03T07:39:22;7.20;;;4.70;;
56820;SDS011;42702;50.178;20.992;2022-09-03T07:41:50;7.40;;;5.30;;
56820;SDS011;42702;50.178;20.992;2022-09-03T07:44:19;7.50;;;4.60;;
56820;SDS011;42702;50.178;20.992;2022-09-03T07:46:47;8.30;;;5.10;;
56820;SDS011;42702;50.178;20.992;2022-09-03T07:49:19;8.70;;;4.70;;
56820;SDS011;42702;50.178;20.992;2022-09-03T07:51:49;6.20;;;4.20;;
56820;SDS011;42702;50.178;20.992;2022-09-03T07:54:19;6.90;;;4.90;;
56820;SDS011;42702;50.178;20.992;2022-09-03T07:56:48;8.90;;;4.80;;
56820;SDS011;42702;50.178;20.992;2022-09-03T07:59:17;8.40;;;4.70;;
56820;SDS011;42702;50.178;20.992;2022-09-03T08:01:46;7.80;;;5.10;;
56820;SDS011;42702;50.178;20.992;2022-09-03T08:04:14;5.70;;;3.80;;
56820;SDS011;42702;50.178;20.992;2022-09-03T08:06:42;7.50;;;4.90;;
56820;SDS011;42702;50.178;20.992;2022-09-03T08:09:10;8.30;;;4.70;;
56820;SDS011;42702;50.178;20.992;2022-09-03T08:11:41;6.80;;;4.50;;
56820;SDS011;42702;50.178;20.992;2022-09-03T08:14:11;8.10;;;4.60;;
56820;SDS011;42702;50.178;20.992;2022-09-03T08:16:44;7.70;;;4.40;;
56820;SDS011;42702;50.178;20.992;2022-09-03T08:19:16;7.30;;;4.20;;
56820;SDS011;42702;50.178;20.992;2022-09-03T08:21:45;5.80;;;4.10;;
56820;SDS011;42702;50.178;20.992;2022-09-03T08:24:14;8.50;;;5.00;;
56820;SDS011;42702;50.178;20.992;2022-09-03T08:26:44;7.40;;;5.30;;
56820;SDS011;42702;50.178;20.992;2022-09-03T08:29:19;7.60;;;4.60;;
56820;SDS011;42702;50.178;20.992;2022-09-03T08:31:48;7.40;;;4.10;;
56820;SDS011;42702;50.178;20.992;2022-09-03T08:34:16;6.30;;;4.50;;
56820;SDS011;42702;50.178;20.992;2022-09-03T08:36:45;5.90;;;4.10;;
56820;SDS011;42702;50.178;20.992;2022-09-03T08:39:14;5.60;;;4.30;;
56820;SDS011;42702;50.178;20.992;2022-09-03T08:44:30;6.60;;;4.30;;
56820;SDS011;42702;50.178;20.992;2022-09-03T08:47:38;6.20;;;3.70;;
56820;SDS011;42702;50.178;20.992;2022-09-03T08:50:28;10.40;;;4.20;;
56820;SDS011;42702;50.178;20.992;2022-09-03T08:53:06;6.40;;;4.10;;
56820;SDS011;42702;50.178;20.992;2022-09-03T08:55:49;8.00;;;4.70;;
56820;SDS011;42702;50.178;20.992;2022-09-03T08:58:18;7.10;;;4.40;;
56820;SDS011;42702;50.178;20.992;2022-09-03T09:06:34;5.30;;;3.50;;
56820;SDS011;42702;50.178;20.992;2022-09-03T09:09:16;6.50;;;4.10;;
56820;SDS011;42702;50.178;20.992;2022-09-03T09:14:44;5.80;;;4.30;;
56820;SDS011;42702;50.178;20.992;2022-09-03T09:20:09;5.70;;;3.60;;
56820;SDS011;42702;50.178;20.992;2022-09-03T09:22:54;5.60;;;3.90;;
56820;SDS011;42702;50.178;20.992;2022-09-03T09:25:44;8.20;;;3.80;;
56820;SDS011;42702;50.178;20.992;2022-09-03T09:28:17;6.40;;;4.30;;
56820;SDS011;42702;50.178;20.992;2022-09-03T09:30:49;6.20;;;4.00;;
56820;SDS011;42702;50.178;20.992;2022-09-03T09:33:21;8.10;;;4.10;;
56820;SDS011;42702;50.178;20.992;2022-09-03T09:35:52;8.50;;;3.40;;
56820;SDS011;42702;50.178;20.992;2022-09-03T09:38:27;5.10;;;4.10;;
56820;SDS011;42702;50.178;20.992;2022-09-03T09:41:11;5.60;;;4.10;;
56820;SDS011;42702;50.178;20.992;2022-09-03T09:43:42;6.20;;;4.20;;
56820;SDS011;42702;50.178;20.992;2022-09-03T09:48:53;5.60;;;4.00;;
56820;SDS011;42702;50.178;20.992;2022-09-03T09:51:25;5.40;;;3.70;;
56820;SDS011;42702;50.178;20.992;2022-09-03T09:56:41;6.90;;;3.90;;
56820;SDS011;42702;50.178;20.992;2022-09-03T09:59:11;5.40;;;3.50;;
56820;SDS011;42702;50.178;20.992;2022-09-03T10:01:42;5.50;;;3.70;;
56820;SDS011;42702;50.178;20.992;2022-09-03T10:04:13;5.90;;;4.30;;
56820;SDS011;42702;50.178;20.992;2022-09-03T10:06:53;6.90;;;4.50;;
56820;SDS011;42702;50.178;20.992;2022-09-03T10:09:26;7.10;;;4.00;;
56820;SDS011;42702;50.178;20.992;2022-09-03T10:18:02;5.00;;;3.90;;
56820;SDS011;42702;50.178;20.992;2022-09-03T10:21:23;8.80;;;4.50;;
56820;SDS011;42702;50.178;20.992;2022-09-03T10:26:30;5.80;;;4.10;;
56820;SDS011;42702;50.178;20.992;2022-09-03T10:29:00;5.30;;;3.90;;
56820;SDS011;42702;50.178;20.992;2022-09-03T10:42:36;7.80;;;4.10;;
56820;SDS011;42702;50.178;20.992;2022-09-03T10:48:09;7.10;;;4.00;;
56820;SDS011;42702;50.178;20.992;2022-09-03T10:51:41;5.70;;;3.90;;
56820;SDS011;42702;50.178;20.992;2022-09-03T10:57:15;7.50;;;3.60;;
56820;SDS011;42702;50.178;20.992;2022-09-03T11:05:28;5.40;;;3.60;;
56820;SDS011;42702;50.178;20.992;2022-09-03T11:08:11;5.20;;;3.70;;
56820;SDS011;42702;50.178;20.992;2022-09-03T11:11:03;4.90;;;3.60;;
56820;SDS011;42702;50.178;20.992;2022-09-03T11:13:46;5.40;;;3.80;;
56820;SDS011;42702;50.178;20.992;2022-09-03T11:17:02;3.50;;;3.20;;
56820;SDS011;42702;50.178;20.992;2022-09-03T11:19:33;5.50;;;3.50;;
56820;SDS011;42702;50.178;20.992;2022-09-03T11:22:04;4.30;;;3.50;;
56820;SDS011;42702;50.178;20.992;2022-09-03T11:24:35;5.00;;;3.50;;
56820;SDS011;42702;50.178;20.992;2022-09-03T11:27:22;4.60;;;3.40;;
56820;SDS011;42702;50.178;20.992;2022-09-03T11:35:26;3.90;;;3.20;;
56820;SDS011;42702;50.178;20.992;2022-09-03T11:38:02;4.10;;;3.20;;
56820;SDS011;42702;50.178;20.992;2022-09-03T11:40:39;4.90;;;3.10;;
56820;SDS011;42702;50.178;20.992;2022-09-03T11:48:55;5.60;;;3.40;;
56820;SDS011;42702;50.178;20.992;2022-09-03T11:51:36;5.30;;;3.40;;
56820;SDS011;42702;50.178;20.992;2022-09-03T11:56:43;4.00;;;2.90;;
56820;SDS011;42702;50.178;20.992;2022-09-03T12:01:44;3.60;;;2.50;;
56820;SDS011;42702;50.178;20.992;2022-09-03T12:04:21;4.00;;;3.00;;
56820;SDS011;42702;50.178;20.992;2022-09-03T12:07:14;5.60;;;2.90;;
56820;SDS011;42702;50.178;20.992;2022-09-03T12:13:13;6.50;;;2.80;;
56820;SDS011;42702;50.178;20.992;2022-09-03T12:18:34;4.70;;;3.50;;
56820;SDS011;42702;50.178;20.992;2022-09-03T12:21:05;5.10;;;3.30;;
56820;SDS011;42702;50.178;20.992;2022-09-03T12:26:25;3.40;;;2.60;;
56820;SDS011;42702;50.178;20.992;2022-09-03T12:28:55;4.30;;;3.00;;
56820;SDS011;42702;50.178;20.992;2022-09-03T12:34:15;4.20;;;2.90;;
56820;SDS011;42702;50.178;20.992;2022-09-03T12:36:47;5.50;;;3.60;;
56820;SDS011;42702;50.178;20.992;2022-09-03T12:42:17;3.90;;;3.20;;
56820;SDS011;42702;50.178;20.992;2022-09-03T12:44:52;5.60;;;3.70;;
56820;SDS011;42702;50.178;20.992;2022-09-03T12:47:22;4.80;;;3.60;;
56820;SDS011;42702;50.178;20.992;2022-09-03T12:50:08;5.30;;;3.60;;
56820;SDS011;42702;50.178;20.992;2022-09-03T12:52:58;6.60;;;3.60;;
56820;SDS011;42702;50.178;20.992;2022-09-03T12:58:30;6.30;;;3.50;;
56820;SDS011;42702;50.178;20.992;2022-09-03T13:01:04;6.90;;;3.20;;
56820;SDS011;42702;50.178;20.992;2022-09-03T13:03:48;4.10;;;2.90;;
56820;SDS011;42702;50.178;20.992;2022-09-03T13:06:28;5.20;;;2.80;;
56820;SDS011;42702;50.178;20.992;2022-09-03T13:09:08;6.40;;;2.90;;
56820;SDS011;42702;50.178;20.992;2022-09-03T13:11:37;4.50;;;2.80;;
56820;SDS011;42702;50.178;20.992;2022-09-03T13:14:06;2.90;;;2.50;;
56820;SDS011;42702;50.178;20.992;2022-09-03T13:28:19;2.80;;;1.70;;
56820;SDS011;42702;50.178;20.992;2022-09-03T13:30:42;2.10;;;1.90;;
56820;SDS011;42702;50.178;20.992;2022-09-03T13:33:31;3.70;;;1.90;;
56820;SDS011;42702;50.178;20.992;2022-09-03T13:36:27;2.50;;;2.00;;
56820;SDS011;42702;50.178;20.992;2022-09-03T13:38:59;4.20;;;2.30;;
56820;SDS011;42702;50.178;20.992;2022-09-03T13:41:42;6.50;;;3.20;;
56820;SDS011;42702;50.178;20.992;2022-09-03T13:44:17;4.30;;;3.00;;
56820;SDS011;42702;50.178;20.992;2022-09-03T13:46:55;5.50;;;2.90;;
56820;SDS011;42702;50.178;20.992;2022-09-03T13:49:38;4.60;;;2.60;;
56820;SDS011;42702;50.178;20.992;2022-09-03T13:55:34;6.00;;;3.00;;
56820;SDS011;42702;50.178;20.992;2022-09-03T13:58:17;5.50;;;2.80;;
56820;SDS011;42702;50.178;20.992;2022-09-03T14:04:32;9.40;;;3.70;;
56820;SDS011;42702;50.178;20.992;2022-09-03T14:06:40;4.80;;;3.20;;
56820;SDS011;42702;50.178;20.992;2022-09-03T14:14:44;6.20;;;3.20;;
56820;SDS011;42702;50.178;20.992;2022-09-03T14:26:03;8.50;;;4.00;;
56820;SDS011;42702;50.178;20.992;2022-09-03T14:28:35;8.10;;;4.20;;
56820;SDS011;42702;50.178;20.992;2022-09-03T14:42:13;4.40;;;2.80;;
56820;SDS011;42702;50.178;20.992;2022-09-03T14:56:36;3.80;;;2.50;;
56820;SDS011;42702;50.178;20.992;2022-09-03T15:07:55;2.80;;;2.30;;
56820;SDS011;42702;50.178;20.992;2022-09-03T15:10:37;4.10;;;2.70;;
56820;SDS011;42702;50.178;20.992;2022-09-03T15:24:25;9.10;;;2.60;;
56820;SDS011;42702;50.178;20.992;2022-09-03T15:52:31;5.00;;;3.30;;
56820;SDS011;42702;50.178;20.992;2022-09-03T15:55:13;6.30;;;2.90;;
56820;SDS011;42702;50.178;20.992;2022-09-03T15:57:54;8.10;;;3.20;;
56820;SDS011;42702;50.178;20.992;2022-09-03T16:03:30;14.40;;;3.40;;
56820;SDS011;42702;50.178;20.992;2022-09-03T16:06:01;74.30;;;6.90;;
56820;SDS011;42702;50.178;20.992;2022-09-03T16:14:02;4.50;;;2.80;;
56820;SDS011;42702;50.178;20.992;2022-09-03T16:19:20;6.50;;;4.20;;
56820;SDS011;42702;50.178;20.992;2022-09-03T16:22:03;5.20;;;4.00;;
56820;SDS011;42702;50.178;20.992;2022-09-03T16:24:42;9.60;;;5.20;;
56820;SDS011;42702;50.178;20.992;2022-09-03T16:27:32;11.30;;;7.20;;
56820;SDS011;42702;50.178;20.992;2022-09-03T16:38:58;6.00;;;4.70;;
56820;SDS011;42702;50.178;20.992;2022-09-03T16:41:39;6.00;;;4.00;;
56820;SDS011;42702;50.178;20.992;2022-09-03T16:53:38;7.50;;;4.60;;
56820;SDS011;42702;50.178;20.992;2022-09-03T17:20:47;7.00;;;4.80;;
56820;SDS011;42702;50.178;20.992;2022-09-03T17:23:43;6.60;;;3.80;;
56820;SDS011;42702;50.178;20.992;2022-09-03T17:29:06;6.10;;;3.80;;
56820;SDS011;42702;50.178;20.992;2022-09-03T17:43:26;5.40;;;3.40;;
56820;SDS011;42702;50.178;20.992;2022-09-03T17:48:50;5.00;;;3.50;;
56820;SDS011;42702;50.178;20.992;2022-09-03T17:51:25;5.40;;;3.40;;
56820;SDS011;42702;50.178;20.992;2022-09-03T17:53:56;7.10;;;3.90;;
56820;SDS011;42702;50.178;20.992;2022-09-03T17:56:32;7.10;;;4.50;;
56820;SDS011;42702;50.178;20.992;2022-09-03T18:04:59;9.60;;;4.60;;
56820;SDS011;42702;50.178;20.992;2022-09-03T18:16:26;10.50;;;5.50;;
56820;SDS011;42702;50.178;20.992;2022-09-03T18:19:07;10.10;;;5.60;;
56820;SDS011;42702;50.178;20.992;2022-09-03T18:21:46;6.40;;;4.20;;
56820;SDS011;42702;50.178;20.992;2022-09-03T18:27:53;7.90;;;3.80;;
56820;SDS011;42702;50.178;20.992;2022-09-03T18:30:45;5.80;;;3.90;;
56820;SDS011;42702;50.178;20.992;2022-09-03T18:33:32;7.10;;;4.30;;
56820;SDS011;42702;50.178;20.992;2022-09-03T18:36:19;6.90;;;3.90;;
56820;SDS011;42702;50.178;20.992;2022-09-03T18:39:14;8.50;;;3.90;;
56820;SDS011;42702;50.178;20.992;2022-09-03T18:48:35;6.70;;;4.40;;
56820;SDS011;42702;50.178;20.992;2022-09-03T19:00:49;7.10;;;4.00;;
56820;SDS011;42702;50.178;20.992;2022-09-03T19:04:14;5.70;;;3.80;;
56820;SDS011;42702;50.178;20.992;2022-09-03T19:07:45;8.90;;;4.10;;
56820;SDS011;42702;50.178;20.992;2022-09-03T19:14:12;8.60;;;5.90;;
56820;SDS011;42702;50.178;20.992;2022-09-03T19:17:17;9.70;;;5.00;;
56820;SDS011;42702;50.178;20.992;2022-09-03T19:20:27;10.10;;;5.50;;
56820;SDS011;42702;50.178;20.992;2022-09-03T19:23:16;9.70;;;6.30;;
56820;SDS011;42702;50.178;20.992;2022-09-03T19:26:05;22.50;;;12.50;;
56820;SDS011;42702;50.178;20.992;2022-09-03T19:29:15;20.50;;;11.80;;
56820;SDS011;42702;50.178;20.992;2022-09-03T19:32:27;11.10;;;8.50;;
56820;SDS011;42702;50.178;20.992;2022-09-03T19:35:36;12.00;;;6.80;;
56820;SDS011;42702;50.178;20.992;2022-09-03T19:38:37;8.50;;;5.90;;
56820;SDS011;42702;50.178;20.992;2022-09-03T19:41:37;13.30;;;9.00;;
56820;SDS011;42702;50.178;20.992;2022-09-03T19:44:41;13.00;;;9.90;;
56820;SDS011;42702;50.178;20.992;2022-09-03T19:50:40;20.30;;;14.30;;
56820;SDS011;42702;50.178;20.992;2022-09-03T19:53:35;25.60;;;16.20;;
56820;SDS011;42702;50.178;20.992;2022-09-03T19:56:28;23.50;;;16.00;;
56820;SDS011;42702;50.178;20.992;2022-09-03T19:59:16;18.60;;;13.40;;
56820;SDS011;42702;50.178;20.992;2022-09-03T20:02:05;8.80;;;6.70;;
56820;SDS011;42702;50.178;20.992;2022-09-03T20:04:55;6.20;;;5.10;;
56820;SDS011;42702;50.178;20.992;2022-09-03T20:10:37;7.60;;;5.30;;
56820;SDS011;42702;50.178;20.992;2022-09-03T20:13:16;17.00;;;10.00;;
56820;SDS011;42702;50.178;20.992;2022-09-03T20:24:17;37.10;;;19.40;;
56820;SDS011;42702;50.178;20.992;2022-09-03T20:41:19;13.70;;;8.30;;
56820;SDS011;42702;50.178;20.992;2022-09-03T20:55:51;11.90;;;7.10;;
56820;SDS011;42702;50.178;20.992;2022-09-03T21:01:19;13.10;;;8.40;;
56820;SDS011;42702;50.178;20.992;2022-09-03T21:06:52;11.40;;;7.50;;
56820;SDS011;42702;50.178;20.992;2022-09-03T21:12:15;7.20;;;5.10;;
56820;SDS011;42702;50.178;20.992;2022-09-03T21:15:04;8.00;;;5.20;;
56820;SDS011;42702;50.178;20.992;2022-09-03T21:17:54;8.10;;;5.50;;
56820;SDS011;42702;50.178;20.992;2022-09-03T21:24:24;7.90;;;5.70;;
56820;SDS011;42702;50.178;20.992;2022-09-03T21:27:02;11.30;;;8.40;;
56820;SDS011;42702;50.178;20.992;2022-09-03T21:35:27;9.30;;;7.00;;
56820;SDS011;42702;50.178;20.992;2022-09-03T21:38:06;7.70;;;5.10;;
56820;SDS011;42702;50.178;20.992;2022-09-03T21:40:44;9.50;;;5.40;;
56820;SDS011;42702;50.178;20.992;2022-09-03T21:43:27;9.00;;;5.70;;
56820;SDS011;42702;50.178;20.992;2022-09-03T21:46:03;9.80;;;5.20;;
56820;SDS011;42702;50.178;20.992;2022-09-03T21:51:31;8.20;;;5.60;;
56820;SDS011;42702;50.178;20.992;2022-09-03T21:54:09;7.30;;;5.30;;
56820;SDS011;42702;50.178;20.992;2022-09-03T21:56:52;8.60;;;5.80;;
56820;SDS011;42702;50.178;20.992;2022-09-03T22:02:38;7.90;;;5.70;;
56820;SDS011;42702;50.178;20.992;2022-09-03T22:05:07;6.80;;;5.70;;
56820;SDS011;42702;50.178;20.992;2022-09-03T22:16:46;8.40;;;5.70;;
56820;SDS011;42702;50.178;20.992;2022-09-03T22:19:51;9.70;;;5.70;;
56820;SDS011;42702;50.178;20.992;2022-09-03T22:25:02;7.80;;;5.40;;
56820;SDS011;42702;50.178;20.992;2022-09-03T22:30:21;7.00;;;5.00;;
56820;SDS011;42702;50.178;20.992;2022-09-03T22:46:21;9.30;;;5.90;;
56820;SDS011;42702;50.178;20.992;2022-09-03T22:51:26;8.70;;;6.50;;
56820;SDS011;42702;50.178;20.992;2022-09-03T22:56:41;10.40;;;6.70;;
56820;SDS011;42702;50.178;20.992;2022-09-03T23:02:20;9.50;;;6.20;;